WZZ6MS LHBP-LGZA
Flight info
| Callsign | WZZ6MS |
|---|---|
| Flight time | 1h 38m |
| Altitude | 37000 |
| Route | FAHAZ DCT KEROP DCT TADAM DCT AKIKA DCT LIMJA DCT PITAS/N0438F330 UN732 KRK UT321 ASTUS |
| Aircraft | A321/M-SDE1E2E3FGIJ1J4RWXY/LB1 |
Departure
| Time | 2026-04-26 12:07 |
|---|---|
| Airport | Budapest Liszt Ferenc International Airport (LHBP) |
Arrival
| Time | 2026-04-26 13:46 |
|---|---|
| Airport | Zakynthos International Airport Dionysios Solomos (LGZA) |
| Time | Latitude | Longitude | Altitude | Speed | Heading |
|---|---|---|---|---|---|
| 2026-04-26 11:27 | 47.43552 | 19.25820 | 456 ft | 0 kts | 312° |
| 2026-04-26 12:01 | 47.43551 | 19.25821 | 457 ft | 2 kts | 312° |
| 2026-04-26 12:01 | 47.43537 | 19.25851 | 457 ft | 4 kts | 287° |
| 2026-04-26 12:01 | 47.43536 | 19.25885 | 457 ft | 4 kts | 235° |
| 2026-04-26 12:01 | 47.43541 | 19.25895 | 457 ft | 0 kts | 222° |
| 2026-04-26 12:03 | 47.43532 | 19.25883 | 457 ft | 4 kts | 222° |
| 2026-04-26 12:04 | 47.43503 | 19.25844 | 457 ft | 6 kts | 222° |
| 2026-04-26 12:04 | 47.43496 | 19.25787 | 457 ft | 6 kts | 301° |
| 2026-04-26 12:04 | 47.43529 | 19.25737 | 457 ft | 7 kts | 314° |
| 2026-04-26 12:04 | 47.43539 | 19.25667 | 457 ft | 8 kts | 248° |
| 2026-04-26 12:05 | 47.43493 | 19.25593 | 457 ft | 13 kts | 223° |
| 2026-04-26 12:05 | 47.43425 | 19.25498 | 457 ft | 14 kts | 223° |
| 2026-04-26 12:05 | 47.43350 | 19.25397 | 457 ft | 15 kts | 223° |
| 2026-04-26 12:05 | 47.43270 | 19.25289 | 457 ft | 16 kts | 222° |
| 2026-04-26 12:06 | 47.43185 | 19.25174 | 457 ft | 17 kts | 223° |
| 2026-04-26 12:06 | 47.43106 | 19.25068 | 457 ft | 11 kts | 221° |
| 2026-04-26 12:06 | 47.43066 | 19.25007 | 457 ft | 7 kts | 250° |
| 2026-04-26 12:06 | 47.43088 | 19.24957 | 457 ft | 6 kts | 312° |
| 2026-04-26 12:07 | 47.43195 | 19.24784 | 456 ft | 55 kts | 312° |
| 2026-04-26 12:07 | 47.43614 | 19.24108 | 453 ft | 120 kts | 312° |
| 2026-04-26 12:07 | 47.44285 | 19.23053 | 690 ft | 147 kts | 316° |
| 2026-04-26 12:07 | 47.44975 | 19.21958 | 1453 ft | 145 kts | 315° |
| 2026-04-26 12:08 | 47.45663 | 19.20817 | 2024 ft | 156 kts | 314° |
| 2026-04-26 12:08 | 47.46438 | 19.19498 | 2209 ft | 181 kts | 313° |
| 2026-04-26 12:08 | 47.47307 | 19.18022 | 2490 ft | 200 kts | 313° |
| 2026-04-26 12:08 | 47.48264 | 19.16349 | 2804 ft | 226 kts | 306° |
| 2026-04-26 12:09 | 47.48854 | 19.14100 | 3341 ft | 246 kts | 280° |
| 2026-04-26 12:09 | 47.48690 | 19.11526 | 4128 ft | 260 kts | 255° |
| 2026-04-26 12:09 | 47.47704 | 19.09227 | 4941 ft | 275 kts | 227° |
| 2026-04-26 12:09 | 47.46050 | 19.07700 | 5718 ft | 287 kts | 211° |
| 2026-04-26 12:10 | 47.44232 | 19.06432 | 6498 ft | 291 kts | 211° |
| 2026-04-26 12:10 | 47.42380 | 19.05186 | 7295 ft | 293 kts | 211° |
| 2026-04-26 12:10 | 47.40529 | 19.03911 | 8088 ft | 294 kts | 212° |
| 2026-04-26 12:10 | 47.38670 | 19.02608 | 8800 ft | 299 kts | 212° |
| 2026-04-26 12:11 | 47.36802 | 19.01272 | 9545 ft | 302 kts | 212° |
| 2026-04-26 12:11 | 47.34900 | 18.99890 | 10225 ft | 307 kts | 212° |
| 2026-04-26 12:11 | 47.32933 | 18.98418 | 10495 ft | 327 kts | 212° |
| 2026-04-26 12:11 | 47.30826 | 18.96869 | 10678 ft | 349 kts | 211° |
| 2026-04-26 12:12 | 47.28604 | 18.95305 | 11177 ft | 358 kts | 210° |
| 2026-04-26 12:12 | 47.26333 | 18.93755 | 11817 ft | 362 kts | 210° |
| 2026-04-26 12:12 | 47.24031 | 18.92212 | 12489 ft | 365 kts | 209° |
| 2026-04-26 12:12 | 47.22497 | 18.91185 | 12915 ft | 367 kts | 210° |
| 2026-04-26 12:13 | 47.19371 | 18.89080 | 13801 ft | 372 kts | 210° |
| 2026-04-26 12:13 | 47.17003 | 18.87478 | 14396 ft | 376 kts | 210° |
| 2026-04-26 12:13 | 47.14582 | 18.85968 | 14973 ft | 383 kts | 202° |
| 2026-04-26 12:13 | 47.11933 | 18.85195 | 15547 ft | 394 kts | 187° |
| 2026-04-26 12:14 | 47.09165 | 18.85421 | 16092 ft | 405 kts | 171° |
| 2026-04-26 12:14 | 47.06473 | 18.86724 | 16664 ft | 411 kts | 155° |
| 2026-04-26 12:14 | 47.04043 | 18.88964 | 17261 ft | 415 kts | 144° |
| 2026-04-26 12:14 | 47.01695 | 18.91456 | 17846 ft | 418 kts | 144° |
| 2026-04-26 12:15 | 46.99325 | 18.93953 | 18413 ft | 422 kts | 144° |
| 2026-04-26 12:15 | 46.96928 | 18.96462 | 18908 ft | 425 kts | 144° |
| 2026-04-26 12:15 | 46.94541 | 18.98949 | 19402 ft | 428 kts | 144° |
| 2026-04-26 12:15 | 46.92106 | 19.01478 | 19913 ft | 431 kts | 144° |
| 2026-04-26 12:16 | 46.89651 | 19.04030 | 20423 ft | 434 kts | 144° |
| 2026-04-26 12:16 | 46.87165 | 19.06561 | 20937 ft | 437 kts | 146° |
| 2026-04-26 12:16 | 46.84617 | 19.09011 | 21465 ft | 440 kts | 148° |
| 2026-04-26 12:16 | 46.82019 | 19.11413 | 21931 ft | 444 kts | 149° |
| 2026-04-26 12:17 | 46.79388 | 19.13798 | 22447 ft | 446 kts | 149° |
| 2026-04-26 12:17 | 46.76745 | 19.16190 | 22946 ft | 449 kts | 149° |
| 2026-04-26 12:17 | 46.74089 | 19.18609 | 23420 ft | 451 kts | 148° |
| 2026-04-26 12:17 | 46.71427 | 19.21058 | 23841 ft | 454 kts | 148° |
| 2026-04-26 12:18 | 46.68753 | 19.23537 | 24231 ft | 457 kts | 148° |
| 2026-04-26 12:18 | 46.66068 | 19.26036 | 24626 ft | 459 kts | 148° |
| 2026-04-26 12:18 | 46.63375 | 19.28545 | 25018 ft | 461 kts | 148° |
| 2026-04-26 12:18 | 46.60666 | 19.31060 | 25394 ft | 463 kts | 148° |
| 2026-04-26 12:19 | 46.57940 | 19.33579 | 25775 ft | 465 kts | 148° |
| 2026-04-26 12:19 | 46.55195 | 19.36100 | 26139 ft | 467 kts | 148° |
| 2026-04-26 12:19 | 46.52448 | 19.38618 | 26556 ft | 468 kts | 148° |
| 2026-04-26 12:19 | 46.49690 | 19.41150 | 26958 ft | 470 kts | 148° |
| 2026-04-26 12:20 | 46.46927 | 19.43691 | 27317 ft | 471 kts | 148° |
| 2026-04-26 12:20 | 46.44150 | 19.46241 | 27685 ft | 473 kts | 148° |
| 2026-04-26 12:20 | 46.41364 | 19.48795 | 28051 ft | 475 kts | 148° |
| 2026-04-26 12:20 | 46.38563 | 19.51358 | 28400 ft | 477 kts | 148° |
| 2026-04-26 12:21 | 46.36702 | 19.53058 | 28627 ft | 478 kts | 148° |
| 2026-04-26 12:21 | 46.33883 | 19.55630 | 28964 ft | 480 kts | 148° |
| 2026-04-26 12:21 | 46.31051 | 19.58213 | 29278 ft | 482 kts | 148° |
| 2026-04-26 12:21 | 46.28212 | 19.60797 | 29702 ft | 482 kts | 149° |
| 2026-04-26 12:22 | 46.25374 | 19.63372 | 30108 ft | 482 kts | 149° |
| 2026-04-26 12:22 | 46.22449 | 19.65734 | 30414 ft | 482 kts | 157° |
| 2026-04-26 12:22 | 46.19317 | 19.67432 | 30693 ft | 481 kts | 166° |
| 2026-04-26 12:22 | 46.16048 | 19.68402 | 30971 ft | 479 kts | 176° |
| 2026-04-26 12:23 | 46.12740 | 19.68625 | 31363 ft | 474 kts | 185° |
| 2026-04-26 12:23 | 46.09473 | 19.68199 | 31745 ft | 470 kts | 190° |
| 2026-04-26 12:23 | 46.06227 | 19.67660 | 32124 ft | 469 kts | 189° |
| 2026-04-26 12:23 | 46.02986 | 19.67129 | 32476 ft | 469 kts | 189° |
| 2026-04-26 12:24 | 45.99749 | 19.66606 | 32853 ft | 468 kts | 189° |
| 2026-04-26 12:24 | 45.96519 | 19.66088 | 33235 ft | 467 kts | 189° |
| 2026-04-26 12:24 | 45.93295 | 19.65574 | 33612 ft | 465 kts | 189° |
| 2026-04-26 12:25 | 45.86871 | 19.64545 | 34278 ft | 464 kts | 189° |
| 2026-04-26 12:25 | 45.83662 | 19.64026 | 34600 ft | 463 kts | 190° |
| 2026-04-26 12:25 | 45.80465 | 19.63508 | 34895 ft | 462 kts | 189° |
| 2026-04-26 12:25 | 45.77278 | 19.62990 | 35237 ft | 460 kts | 189° |
| 2026-04-26 12:26 | 45.74095 | 19.62474 | 35527 ft | 460 kts | 188° |
| 2026-04-26 12:26 | 45.70919 | 19.61958 | 35805 ft | 459 kts | 189° |
| 2026-04-26 12:26 | 45.67745 | 19.61445 | 36114 ft | 458 kts | 188° |
| 2026-04-26 12:26 | 45.64582 | 19.60937 | 36389 ft | 457 kts | 189° |
| 2026-04-26 12:27 | 45.61424 | 19.60434 | 36693 ft | 456 kts | 189° |
| 2026-04-26 12:27 | 45.58272 | 19.59935 | 36956 ft | 456 kts | 188° |
| 2026-04-26 12:27 | 45.55161 | 19.59440 | 37094 ft | 456 kts | 190° |
| 2026-04-26 12:27 | 45.52008 | 19.58936 | 37119 ft | 456 kts | 188° |
| 2026-04-26 12:28 | 45.45714 | 19.57931 | 37112 ft | 454 kts | 189° |
| 2026-04-26 12:28 | 45.39441 | 19.56931 | 37119 ft | 454 kts | 189° |
| 2026-04-26 12:29 | 45.33161 | 19.55935 | 37119 ft | 454 kts | 189° |
| 2026-04-26 12:30 | 45.23741 | 19.54623 | 37116 ft | 455 kts | 181° |
| 2026-04-26 12:30 | 45.17392 | 19.54772 | 37129 ft | 457 kts | 181° |
| 2026-04-26 12:31 | 45.07860 | 19.54980 | 37137 ft | 457 kts | 181° |
| 2026-04-26 12:31 | 45.01501 | 19.55116 | 37131 ft | 457 kts | 182° |
| 2026-04-26 12:32 | 44.95141 | 19.55254 | 37134 ft | 457 kts | 181° |
| 2026-04-26 12:33 | 44.85595 | 19.55472 | 37119 ft | 457 kts | 181° |
| 2026-04-26 12:33 | 44.79229 | 19.55609 | 37129 ft | 457 kts | 181° |
| 2026-04-26 12:34 | 44.72867 | 19.55746 | 37137 ft | 457 kts | 181° |
| 2026-04-26 12:34 | 44.66502 | 19.55885 | 37131 ft | 458 kts | 181° |
| 2026-04-26 12:35 | 44.60136 | 19.56029 | 37133 ft | 458 kts | 181° |
| 2026-04-26 12:35 | 44.53771 | 19.56172 | 37145 ft | 458 kts | 181° |
| 2026-04-26 12:36 | 44.47401 | 19.56306 | 37143 ft | 458 kts | 181° |
| 2026-04-26 12:36 | 44.41031 | 19.56445 | 37137 ft | 458 kts | 181° |
| 2026-04-26 12:37 | 44.34659 | 19.56585 | 37139 ft | 458 kts | 181° |
| 2026-04-26 12:37 | 44.28291 | 19.56719 | 37145 ft | 458 kts | 181° |
| 2026-04-26 12:38 | 44.21921 | 19.56858 | 37136 ft | 458 kts | 181° |
| 2026-04-26 12:38 | 44.15554 | 19.56998 | 37141 ft | 457 kts | 181° |
| 2026-04-26 12:39 | 44.09233 | 19.57131 | 37143 ft | 457 kts | 181° |
| 2026-04-26 12:39 | 44.02875 | 19.57264 | 37134 ft | 457 kts | 181° |
| 2026-04-26 12:40 | 43.96509 | 19.57400 | 37137 ft | 457 kts | 181° |
| 2026-04-26 12:40 | 43.90146 | 19.57542 | 37137 ft | 457 kts | 181° |
| 2026-04-26 12:41 | 43.83790 | 19.57682 | 37128 ft | 457 kts | 181° |
| 2026-04-26 12:41 | 43.77437 | 19.57819 | 37130 ft | 456 kts | 181° |
| 2026-04-26 12:42 | 43.71089 | 19.57949 | 37130 ft | 456 kts | 181° |
| 2026-04-26 12:42 | 43.64745 | 19.58078 | 37121 ft | 456 kts | 181° |
| 2026-04-26 12:43 | 43.58406 | 19.58211 | 37116 ft | 455 kts | 181° |
| 2026-04-26 12:43 | 43.52065 | 19.58340 | 37121 ft | 456 kts | 181° |
| 2026-04-26 12:44 | 43.45727 | 19.58474 | 37108 ft | 455 kts | 182° |
| 2026-04-26 12:44 | 43.39390 | 19.58612 | 37114 ft | 455 kts | 181° |
| 2026-04-26 12:45 | 43.33054 | 19.58745 | 37115 ft | 455 kts | 182° |
| 2026-04-26 12:45 | 43.26720 | 19.58874 | 37109 ft | 455 kts | 182° |
| 2026-04-26 12:46 | 43.20432 | 19.59006 | 37110 ft | 455 kts | 182° |
| 2026-04-26 12:46 | 43.14099 | 19.59145 | 37108 ft | 455 kts | 182° |
| 2026-04-26 12:47 | 43.07769 | 19.59275 | 37107 ft | 455 kts | 182° |
| 2026-04-26 12:47 | 43.01435 | 19.59407 | 37098 ft | 455 kts | 182° |
| 2026-04-26 12:48 | 42.95100 | 19.59534 | 37098 ft | 455 kts | 182° |
| 2026-04-26 12:48 | 42.88766 | 19.59659 | 37090 ft | 455 kts | 182° |
| 2026-04-26 12:49 | 42.82435 | 19.59785 | 37098 ft | 455 kts | 182° |
| 2026-04-26 12:49 | 42.76100 | 19.59916 | 37095 ft | 455 kts | 182° |
| 2026-04-26 12:50 | 42.69763 | 19.60050 | 37083 ft | 456 kts | 182° |
| 2026-04-26 12:50 | 42.63429 | 19.60186 | 37085 ft | 455 kts | 182° |
| 2026-04-26 12:51 | 42.57096 | 19.60318 | 37083 ft | 455 kts | 182° |
| 2026-04-26 12:51 | 42.50768 | 19.60390 | 37063 ft | 454 kts | 184° |
| 2026-04-26 12:52 | 42.44453 | 19.60157 | 37079 ft | 454 kts | 186° |
| 2026-04-26 12:52 | 42.38149 | 19.59810 | 37075 ft | 453 kts | 186° |
| 2026-04-26 12:53 | 42.31850 | 19.59511 | 37061 ft | 453 kts | 185° |
| 2026-04-26 12:53 | 42.25553 | 19.59276 | 37070 ft | 452 kts | 185° |
| 2026-04-26 12:54 | 42.19263 | 19.59055 | 37076 ft | 452 kts | 185° |
| 2026-04-26 12:54 | 42.12985 | 19.58819 | 37071 ft | 451 kts | 185° |
| 2026-04-26 12:55 | 42.06712 | 19.58570 | 37066 ft | 451 kts | 185° |
| 2026-04-26 12:55 | 42.00477 | 19.58320 | 37074 ft | 451 kts | 185° |
| 2026-04-26 12:56 | 41.94204 | 19.58081 | 37080 ft | 451 kts | 185° |
| 2026-04-26 12:56 | 41.87892 | 19.57841 | 37078 ft | 451 kts | 185° |
| 2026-04-26 12:57 | 41.81621 | 19.57603 | 37081 ft | 450 kts | 185° |
| 2026-04-26 12:57 | 41.75404 | 19.57373 | 37083 ft | 450 kts | 185° |
| 2026-04-26 12:58 | 41.66018 | 19.57016 | 37089 ft | 449 kts | 185° |
| 2026-04-26 12:58 | 41.59772 | 19.56768 | 37092 ft | 449 kts | 185° |
| 2026-04-26 12:59 | 41.53530 | 19.56528 | 37091 ft | 449 kts | 185° |
| 2026-04-26 12:59 | 41.47297 | 19.56292 | 37085 ft | 448 kts | 185° |
| 2026-04-26 13:00 | 41.41072 | 19.56051 | 37093 ft | 447 kts | 185° |
| 2026-04-26 13:00 | 41.34851 | 19.55822 | 37095 ft | 447 kts | 185° |
| 2026-04-26 13:01 | 41.28635 | 19.55594 | 37091 ft | 446 kts | 185° |
| 2026-04-26 13:01 | 41.22427 | 19.55355 | 37092 ft | 446 kts | 185° |
| 2026-04-26 13:02 | 41.16225 | 19.55116 | 37095 ft | 446 kts | 185° |
| 2026-04-26 13:02 | 41.10021 | 19.54887 | 37097 ft | 446 kts | 185° |
| 2026-04-26 13:03 | 41.03823 | 19.54660 | 37090 ft | 445 kts | 185° |
| 2026-04-26 13:03 | 40.97630 | 19.54428 | 37087 ft | 445 kts | 185° |
| 2026-04-26 13:04 | 40.91435 | 19.54197 | 37083 ft | 445 kts | 185° |
| 2026-04-26 13:04 | 40.85250 | 19.53964 | 37087 ft | 445 kts | 185° |
| 2026-04-26 13:05 | 40.79064 | 19.53726 | 37075 ft | 445 kts | 185° |
| 2026-04-26 13:05 | 40.72920 | 19.53498 | 37080 ft | 445 kts | 185° |
| 2026-04-26 13:06 | 40.66729 | 19.53265 | 37081 ft | 445 kts | 185° |
| 2026-04-26 13:06 | 40.60542 | 19.53039 | 37080 ft | 445 kts | 184° |
| 2026-04-26 13:07 | 40.54390 | 19.54163 | 37075 ft | 452 kts | 165° |
| 2026-04-26 13:07 | 40.48466 | 19.56964 | 37070 ft | 453 kts | 163° |
| 2026-04-26 13:08 | 40.42535 | 19.59778 | 37069 ft | 453 kts | 163° |
| 2026-04-26 13:08 | 40.36605 | 19.62585 | 37064 ft | 453 kts | 163° |
| 2026-04-26 13:09 | 40.30668 | 19.65386 | 37064 ft | 453 kts | 163° |
| 2026-04-26 13:09 | 40.25736 | 19.67705 | 37050 ft | 453 kts | 163° |
| 2026-04-26 13:10 | 40.19800 | 19.70493 | 37052 ft | 453 kts | 163° |
| 2026-04-26 13:10 | 40.13889 | 19.73271 | 36994 ft | 445 kts | 163° |
| 2026-04-26 13:11 | 40.10996 | 19.74635 | 36684 ft | 440 kts | 163° |
| 2026-04-26 13:11 | 40.08125 | 19.75982 | 36191 ft | 438 kts | 163° |
| 2026-04-26 13:11 | 40.05260 | 19.77322 | 35643 ft | 438 kts | 163° |
| 2026-04-26 13:11 | 40.02388 | 19.78664 | 35081 ft | 438 kts | 163° |
| 2026-04-26 13:12 | 39.99518 | 19.80004 | 34491 ft | 439 kts | 163° |
| 2026-04-26 13:12 | 39.96640 | 19.81346 | 33879 ft | 440 kts | 163° |
| 2026-04-26 13:12 | 39.93748 | 19.82691 | 33225 ft | 441 kts | 163° |
| 2026-04-26 13:12 | 39.90858 | 19.84034 | 32990 ft | 443 kts | 163° |
| 2026-04-26 13:13 | 39.85049 | 19.86831 | 33021 ft | 447 kts | 162° |
| 2026-04-26 13:13 | 39.79261 | 19.89794 | 33026 ft | 447 kts | 161° |
| 2026-04-26 13:14 | 39.73485 | 19.92753 | 33029 ft | 446 kts | 161° |
| 2026-04-26 13:14 | 39.67698 | 19.95661 | 33030 ft | 446 kts | 162° |
| 2026-04-26 13:15 | 39.61903 | 19.98550 | 33034 ft | 446 kts | 162° |
| 2026-04-26 13:15 | 39.56106 | 20.01439 | 33032 ft | 446 kts | 161° |
| 2026-04-26 13:16 | 39.50308 | 20.04323 | 33040 ft | 446 kts | 161° |
| 2026-04-26 13:16 | 39.44450 | 20.06913 | 33043 ft | 443 kts | 171° |
| 2026-04-26 13:17 | 39.35312 | 20.07777 | 33057 ft | 439 kts | 180° |
| 2026-04-26 13:18 | 39.26157 | 20.08326 | 33077 ft | 439 kts | 180° |
| 2026-04-26 13:19 | 39.17003 | 20.08877 | 33084 ft | 439 kts | 180° |
| 2026-04-26 13:19 | 39.10901 | 20.09222 | 33100 ft | 439 kts | 180° |
| 2026-04-26 13:20 | 39.04845 | 20.09568 | 33098 ft | 438 kts | 180° |
| 2026-04-26 13:20 | 38.98755 | 20.09920 | 33098 ft | 438 kts | 180° |
| 2026-04-26 13:21 | 38.92678 | 20.10185 | 32844 ft | 432 kts | 181° |
| 2026-04-26 13:21 | 38.90658 | 20.10206 | 32674 ft | 429 kts | 182° |
| 2026-04-26 13:21 | 38.86717 | 20.10187 | 32321 ft | 426 kts | 183° |
| 2026-04-26 13:21 | 38.83757 | 20.10158 | 32058 ft | 425 kts | 183° |
| 2026-04-26 13:22 | 38.80806 | 20.10138 | 31811 ft | 424 kts | 182° |
| 2026-04-26 13:22 | 38.77861 | 20.10131 | 31559 ft | 422 kts | 182° |
| 2026-04-26 13:22 | 38.74928 | 20.10136 | 31310 ft | 421 kts | 182° |
| 2026-04-26 13:22 | 38.71999 | 20.10152 | 31062 ft | 420 kts | 182° |
| 2026-04-26 13:23 | 38.69096 | 20.10176 | 30816 ft | 419 kts | 182° |
| 2026-04-26 13:23 | 38.66187 | 20.10203 | 30564 ft | 415 kts | 182° |
| 2026-04-26 13:23 | 38.63312 | 20.10226 | 30113 ft | 412 kts | 182° |
| 2026-04-26 13:23 | 38.60451 | 20.10244 | 29617 ft | 409 kts | 182° |
| 2026-04-26 13:24 | 38.57620 | 20.10261 | 29166 ft | 405 kts | 182° |
| 2026-04-26 13:24 | 38.54818 | 20.10275 | 28718 ft | 401 kts | 182° |
| 2026-04-26 13:24 | 38.52035 | 20.10287 | 28278 ft | 398 kts | 182° |
| 2026-04-26 13:24 | 38.49273 | 20.10298 | 27857 ft | 396 kts | 182° |
| 2026-04-26 13:25 | 38.46564 | 20.10211 | 27017 ft | 402 kts | 186° |
| 2026-04-26 13:25 | 38.43757 | 20.09956 | 25930 ft | 404 kts | 186° |
| 2026-04-26 13:25 | 38.40957 | 20.09723 | 24897 ft | 402 kts | 185° |
| 2026-04-26 13:25 | 38.38175 | 20.09553 | 23905 ft | 398 kts | 188° |
| 2026-04-26 13:26 | 38.35556 | 20.08636 | 22809 ft | 386 kts | 211° |
| 2026-04-26 13:26 | 38.33373 | 20.06734 | 21799 ft | 377 kts | 223° |
| 2026-04-26 13:26 | 38.31397 | 20.04614 | 21529 ft | 366 kts | 220° |
| 2026-04-26 13:26 | 38.29311 | 20.02825 | 21371 ft | 358 kts | 211° |
| 2026-04-26 13:27 | 38.27086 | 20.01500 | 21215 ft | 349 kts | 203° |
| 2026-04-26 13:27 | 38.24853 | 20.00523 | 21058 ft | 340 kts | 199° |
| 2026-04-26 13:27 | 38.22587 | 19.99704 | 20907 ft | 338 kts | 197° |
| 2026-04-26 13:27 | 38.20302 | 19.98990 | 20755 ft | 338 kts | 195° |
| 2026-04-26 13:28 | 38.17961 | 19.98401 | 20587 ft | 338 kts | 192° |
| 2026-04-26 13:28 | 38.15629 | 19.97982 | 20432 ft | 338 kts | 188° |
| 2026-04-26 13:28 | 38.13283 | 19.97741 | 20274 ft | 338 kts | 184° |
| 2026-04-26 13:28 | 38.10932 | 19.97679 | 20119 ft | 338 kts | 181° |
| 2026-04-26 13:29 | 38.08581 | 19.97786 | 19951 ft | 338 kts | 178° |
| 2026-04-26 13:29 | 38.07028 | 19.97948 | 19852 ft | 338 kts | 175° |
| 2026-04-26 13:29 | 38.03957 | 19.98740 | 19670 ft | 338 kts | 158° |
| 2026-04-26 13:29 | 38.01938 | 20.00177 | 19572 ft | 339 kts | 142° |
| 2026-04-26 13:30 | 38.00289 | 20.02302 | 19209 ft | 338 kts | 124° |
| 2026-04-26 13:30 | 37.99203 | 20.04925 | 18774 ft | 336 kts | 107° |
| 2026-04-26 13:30 | 37.98727 | 20.07810 | 18308 ft | 335 kts | 95° |
| 2026-04-26 13:30 | 37.98223 | 20.10695 | 17824 ft | 337 kts | 111° |
| 2026-04-26 13:31 | 37.97034 | 20.13235 | 17417 ft | 336 kts | 126° |
| 2026-04-26 13:31 | 37.95717 | 20.15661 | 17023 ft | 333 kts | 121° |
| 2026-04-26 13:31 | 37.94466 | 20.18127 | 16616 ft | 332 kts | 121° |
| 2026-04-26 13:31 | 37.93214 | 20.20576 | 16230 ft | 330 kts | 121° |
| 2026-04-26 13:32 | 37.91972 | 20.23017 | 15824 ft | 329 kts | 121° |
| 2026-04-26 13:32 | 37.90736 | 20.25455 | 15420 ft | 328 kts | 121° |
| 2026-04-26 13:32 | 37.89511 | 20.27886 | 15034 ft | 327 kts | 121° |
| 2026-04-26 13:32 | 37.88291 | 20.30313 | 14642 ft | 326 kts | 121° |
| 2026-04-26 13:33 | 37.87076 | 20.32734 | 14250 ft | 325 kts | 121° |
| 2026-04-26 13:33 | 37.85864 | 20.35148 | 13848 ft | 323 kts | 121° |
| 2026-04-26 13:33 | 37.84673 | 20.37514 | 13437 ft | 314 kts | 121° |
| 2026-04-26 13:33 | 37.83515 | 20.39810 | 13073 ft | 307 kts | 121° |
| 2026-04-26 13:34 | 37.82375 | 20.42070 | 12704 ft | 304 kts | 121° |
| 2026-04-26 13:34 | 37.81242 | 20.44320 | 12339 ft | 303 kts | 121° |
| 2026-04-26 13:34 | 37.80114 | 20.46557 | 11976 ft | 302 kts | 121° |
| 2026-04-26 13:34 | 37.79352 | 20.48068 | 11723 ft | 301 kts | 121° |
| 2026-04-26 13:35 | 37.77865 | 20.51022 | 11248 ft | 301 kts | 120° |
| 2026-04-26 13:35 | 37.76745 | 20.53248 | 10885 ft | 300 kts | 121° |
| 2026-04-26 13:35 | 37.75626 | 20.55473 | 10514 ft | 300 kts | 121° |
| 2026-04-26 13:35 | 37.74508 | 20.57693 | 10174 ft | 299 kts | 121° |
| 2026-04-26 13:36 | 37.73403 | 20.59880 | 10089 ft | 295 kts | 121° |
| 2026-04-26 13:36 | 37.72298 | 20.62061 | 9835 ft | 295 kts | 121° |
| 2026-04-26 13:36 | 37.71185 | 20.64253 | 9388 ft | 296 kts | 121° |
| 2026-04-26 13:36 | 37.70073 | 20.66442 | 8997 ft | 296 kts | 122° |
| 2026-04-26 13:37 | 37.69023 | 20.68510 | 8630 ft | 296 kts | 122° |
| 2026-04-26 13:37 | 37.67917 | 20.70694 | 8233 ft | 294 kts | 122° |
| 2026-04-26 13:37 | 37.66826 | 20.72836 | 7858 ft | 286 kts | 122° |
| 2026-04-26 13:37 | 37.65766 | 20.74913 | 7485 ft | 278 kts | 122° |
| 2026-04-26 13:38 | 37.64726 | 20.76938 | 7129 ft | 272 kts | 122° |
| 2026-04-26 13:38 | 37.63728 | 20.78903 | 6779 ft | 260 kts | 122° |
| 2026-04-26 13:38 | 37.62755 | 20.80823 | 6440 ft | 261 kts | 122° |
| 2026-04-26 13:38 | 37.61782 | 20.82743 | 6086 ft | 257 kts | 122° |
| 2026-04-26 13:39 | 37.60829 | 20.84617 | 5748 ft | 252 kts | 122° |
| 2026-04-26 13:39 | 37.59884 | 20.86471 | 5420 ft | 249 kts | 123° |
| 2026-04-26 13:39 | 37.58958 | 20.88286 | 5135 ft | 246 kts | 123° |
| 2026-04-26 13:39 | 37.58032 | 20.90096 | 4792 ft | 244 kts | 123° |
| 2026-04-26 13:40 | 37.57130 | 20.91859 | 4455 ft | 241 kts | 123° |
| 2026-04-26 13:40 | 37.56228 | 20.93621 | 4142 ft | 237 kts | 123° |
| 2026-04-26 13:40 | 37.55489 | 20.95446 | 3814 ft | 234 kts | 102° |
| 2026-04-26 13:40 | 37.55551 | 20.97444 | 3505 ft | 227 kts | 67° |
| 2026-04-26 13:41 | 37.56359 | 20.98921 | 3276 ft | 221 kts | 36° |
| 2026-04-26 13:41 | 37.57723 | 20.99628 | 3062 ft | 208 kts | 1° |
| 2026-04-26 13:41 | 37.59138 | 20.99401 | 3016 ft | 204 kts | 346° |
| 2026-04-26 13:41 | 37.60477 | 20.98871 | 3009 ft | 199 kts | 331° |
| 2026-04-26 13:42 | 37.61602 | 20.97864 | 2997 ft | 199 kts | 313° |
| 2026-04-26 13:42 | 37.62331 | 20.96383 | 2913 ft | 199 kts | 295° |
| 2026-04-26 13:42 | 37.62836 | 20.94830 | 2783 ft | 183 kts | 291° |
| 2026-04-26 13:42 | 37.63245 | 20.93350 | 2488 ft | 175 kts | 294° |
| 2026-04-26 13:43 | 37.63989 | 20.92183 | 2117 ft | 172 kts | 328° |
| 2026-04-26 13:43 | 37.65110 | 20.91813 | 1883 ft | 161 kts | 346° |
| 2026-04-26 13:43 | 37.66177 | 20.91527 | 1683 ft | 154 kts | 344° |
| 2026-04-26 13:43 | 37.67203 | 20.91235 | 1391 ft | 149 kts | 344° |
| 2026-04-26 13:44 | 37.68217 | 20.91059 | 1099 ft | 143 kts | 350° |
| 2026-04-26 13:44 | 37.69173 | 20.90796 | 959 ft | 139 kts | 340° |
| 2026-04-26 13:44 | 37.70081 | 20.90371 | 861 ft | 140 kts | 337° |
| 2026-04-26 13:44 | 37.71008 | 20.89972 | 714 ft | 141 kts | 341° |
| 2026-04-26 13:45 | 37.71946 | 20.89617 | 563 ft | 139 kts | 342° |
| 2026-04-26 13:45 | 37.72865 | 20.89256 | 368 ft | 138 kts | 342° |
| 2026-04-26 13:45 | 37.73780 | 20.88913 | 166 ft | 135 kts | 343° |
| 2026-04-26 13:45 | 37.74673 | 20.88583 | 29 ft | 127 kts | 342° |
| 2026-04-26 13:46 | 37.75341 | 20.88331 | 20 ft | 61 kts | 344° |
| 2026-04-26 13:46 | 37.75564 | 20.88250 | 21 ft | 26 kts | 343° |
| 2026-04-26 13:46 | 37.75668 | 20.88249 | 25 ft | 10 kts | 345° |
| 2026-04-26 13:46 | 37.75651 | 20.88209 | 23 ft | 9 kts | 162° |
| 2026-04-26 13:47 | 37.75583 | 20.88244 | 22 ft | 12 kts | 161° |
| 2026-04-26 13:47 | 37.75499 | 20.88286 | 21 ft | 14 kts | 146° |
| 2026-04-26 13:47 | 37.75470 | 20.88364 | 23 ft | 5 kts | 102° |
| 2026-04-26 13:47 | 37.75469 | 20.88375 | 22 ft | 1 kts | 99° |
| 2026-04-26 13:48 | 37.75468 | 20.88397 | 21 ft | 5 kts | 90° |
| 2026-04-26 13:48 | 37.75473 | 20.88432 | 22 ft | 4 kts | 74° |
| 2026-04-26 13:48 | 37.75481 | 20.88465 | 21 ft | 4 kts | 73° |
| 2026-04-26 13:48 | 37.75485 | 20.88483 | 21 ft | 1 kts | 73° |
| 2026-04-26 13:49 | 37.75487 | 20.88490 | 21 ft | 0 kts | 73° |